Main page
Satellite images 15-day forecastsClimateMarine weather Cyclones Lightning AirportsFAQ Newsletter About
Weather : Europe Africa North America South America Asia Australia-Oceania Others
Languages Contact

Waddington, England

RAF

latitude: 53-10N, longitude: 000-31W, elevation: 68 m


METAR: EGXW 240250Z 24007KT CAVOK 03/02 Q1022 BLU
TAF: missing

Time: 03:30 (03:30 UTC)

Current weather observation

The report was made 40 minutes ago, at 02:50 UTC
Wind 7 kt from the West/Southwest
Temperature 3°C
Humidity 93%
Pressure 1022 hPa
Visibility 10 km or more
no clouds below 1500 m and no cumulonimbus

Change units
The information on this site is subject to a disclaimer
Weather : Europe Africa North America South America Asia Australia-Oceania Others
Satellite images 15-day forecastsClimateMarine weather Cyclones Lightning AirportsFAQ Languages Contact Newsletter About